Aeroporto :
LOGIN :

Iscrizione | Disclaimer

   EN    FR    IT 

 










Sommario :    VFR   VFR Marginale   IFR   IFR Intensivo   IFR Molto Intensivo
Visibilità : 
Base nubi : 
>= 8 km
>= 3000ft
5 / 8 km
1000 / 3000 ft
1500m / 5 km
500 / 1000 ft
800 / 1500m
200 / 500 ft
< 800m
< 200 ft
Simboli :   Temporali  Nebbia  Neve Forte  Precipitazioni Forti  Vento > 20 kt
SIGMETs :   Varie  Temporali  Ghiacco  Turbolenza  Onda orograficha  Ceneri Vulcaniche






- Altitudine del aeroporto : 288 ft
- Codice IATA : BZZ


EGVN - RAF Brize Norton

ULTIMO METAR :
  • 171220Z 01005KT 6000 HZ FEW006 SCT012 08/06 Q1011 NOSIG RMK GRN GRN

METARs OBSOLETI :
  • 171150Z 36006KT 4000 HZ SCT006 SCT024 07/06 Q1010 TEMPO 5000 SCT010 RMK YLO1 TEMPO GRN
  • 171123Z 34004KT 4000 HZ SCT006 SCT015 07/06 Q1011 BECMG 5000 SCT010 RMK YLO1 BECMG GRN
  • 171114Z 33003KT 4000 HZ SCT006 SCT012 07/06 Q1011 TEMPO 5000 SCT012 RMK YLO1 TEMPO GRN
  • 171050Z 31003KT 5000 HZ FEW013 BKN017 07/06 Q1011 BECMG 8000
  • 171020Z 27001KT 5000 HZ FEW016 SCT020 BKN060 06/05 Q1011 BECMG 9999 NSW RMK WHT BECMG BLU
  • 170950Z 11001KT 5000 4000N HZ SCT020 SCT035 BKN060 05/04 Q1011 BECMG 6000 RMK GRN BECMG WHT

TAF AMD TAF EGVN
Valido dal 17 a 12 ore il 18 a 12 ore UTC


171134Z 1712/1812 02005KT 5000 HZ SCT020
TEMPO 1712/1715 SCT008
PROB40
TEMPO 1712/1715 3000 -RADZ SCT006
BECMG 1715/1718 BKN010
TEMPO 1717/1802 3000 -RA SCT005
BECMG 1803/1806 9999 NSW SCT025
TEMPO 1806/1812 SCT012



MetMap, La meteo Aeronautica in un colpo d'occhio ! - Copyright ORBIFLY Dicembre 2007 - Disclaimer

ORBIFLY MET'MAP TEAM :

Programmazione e sviluppo : Alexandra Zaïnal
Concezione e sviluppo : Baudouin d'Aumeries
Co-Programmazione e sviluppo : Marc-Olivier Méhu
Supporto tecnico e logistico : Manuel Goepfert
Aiuto per la traduzione : Arnaldo La Scala

Contatto : metmap@orbifly.com




FONTI E CREDITI :

   NOAA